Time;durP1;ratioP1;P1;durP2;ratioP2;P2;SDS_P1;SDS_P2;PMS_P1;PMS_P2;Temp;Humidity;BMP_temperature;BMP_pressure;BME280_temperature;BME280_humidity;BME280_pressure;Samples;Min_cycle;Max_cycle;Signal;HPM_P1;HPM_P2
2021/11/03 00:01:30;;;;;;;4.07;2.30;;;;;;;5.29;70.39;91635.47;2047574;70;20235;-79
2021/11/03 00:03:56;;;;;;;4.43;2.60;;;;;;;5.29;70.24;91635.47;2047369;70;20604;-77
2021/11/03 00:06:23;;;;;;;3.58;2.30;;;;;;;5.21;71.22;91631.44;2047631;70;20150;-75
2021/11/03 00:08:50;;;;;;;3.75;2.40;;;;;;;5.28;70.63;91628.44;2047797;70;20635;-80
2021/11/03 00:11:16;;;;;;;6.07;2.78;;;;;;;5.27;70.41;91632.56;2047357;70;20157;-80
2021/11/03 00:13:42;;;;;;;5.40;2.67;;;;;;;5.04;71.60;91621.31;2047778;70;20150;-73
2021/11/03 00:16:07;;;;;;;4.43;2.70;;;;;;;5.20;71.10;91618.84;2046450;70;20226;-73
2021/11/03 00:18:34;;;;;;;4.65;2.20;;;;;;;5.18;70.69;91607.53;2047288;70;20157;-74
2021/11/03 00:21:01;;;;;;;3.78;2.40;;;;;;;5.24;70.86;91605.16;2047727;70;20139;-76
2021/11/03 00:23:27;;;;;;;3.55;2.00;;;;;;;5.12;71.60;91602.31;2047035;70;20199;-75
2021/11/03 00:25:53;;;;;;;4.65;2.30;;;;;;;5.02;72.66;91604.47;2047774;70;20269;-80
2021/11/03 00:28:20;;;;;;;3.63;2.30;;;;;;;5.00;72.50;91593.94;2049043;70;20143;-74
2021/11/03 00:30:49;;;;;;;5.00;2.10;;;;;;;4.88;72.78;91600.78;2048890;70;20150;-79
2021/11/03 00:33:16;;;;;;;3.45;2.10;;;;;;;4.89;72.15;91591.09;2047051;70;20168;-80
2021/11/03 00:35:42;;;;;;;6.85;2.50;;;;;;;4.76;71.85;91598.66;2047821;70;20246;-79
2021/11/03 00:38:08;;;;;;;4.03;2.38;;;;;;;4.81;72.01;91577.34;2047247;70;20501;-77
2021/11/03 00:40:35;;;;;;;5.38;2.22;;;;;;;4.95;71.94;91569.91;2047396;70;20159;-73
2021/11/03 00:43:02;;;;;;;3.80;2.08;;;;;;;5.04;71.41;91562.75;2047004;70;20225;-74
2021/11/03 00:45:27;;;;;;;2.75;1.85;;;;;;;5.06;71.22;91560.09;2046873;70;20161;-76
2021/11/03 00:47:53;;;;;;;2.92;1.60;;;;;;;5.05;71.13;91559.38;2047266;70;20150;-77
2021/11/03 00:50:21;;;;;;;2.78;1.80;;;;;;;4.76;72.60;91561.69;2047355;70;20603;-78
2021/11/03 00:52:48;;;;;;;2.80;1.98;;;;;;;4.89;71.34;91561.13;2047399;70;20139;-81
2021/11/03 00:55:14;;;;;;;4.13;2.55;;;;;;;4.89;70.92;91555.56;2046959;70;20147;-76
2021/11/03 00:57:40;;;;;;;2.58;1.88;;;;;;;4.90;71.42;91565.38;2047056;70;20145;-75
2021/11/03 01:00:08;;;;;;;2.83;2.10;;;;;;;4.80;71.87;91562.69;2047308;70;20641;-75
2021/11/03 01:02:34;;;;;;;3.50;2.10;;;;;;;4.93;71.54;91569.75;2047648;70;20222;-78
2021/11/03 01:05:00;;;;;;;2.72;1.88;;;;;;;4.90;71.07;91575.81;2044303;70;20151;-75
2021/11/03 01:07:25;;;;;;;3.35;2.33;;;;;;;4.77;71.51;91569.47;2045991;70;20147;-78
2021/11/03 01:09:51;;;;;;;4.45;2.03;;;;;;;4.77;71.74;91565.97;2046164;70;20158;-80
2021/11/03 01:12:17;;;;;;;5.35;2.80;;;;;;;4.78;71.40;91564.63;2044288;70;20213;-79
2021/11/03 01:14:43;;;;;;;5.07;2.28;;;;;;;4.72;71.09;91564.22;2047457;70;20177;-80
2021/11/03 01:17:08;;;;;;;4.55;2.70;;;;;;;4.55;72.52;91559.69;2046479;70;20520;-79
2021/11/03 01:19:34;;;;;;;3.90;2.67;;;;;;;4.73;71.17;91571.28;2047185;70;20161;-80
2021/11/03 01:22:00;;;;;;;10.50;4.00;;;;;;;4.64;71.99;91563.72;2047315;70;20686;-79
2021/11/03 01:24:26;;;;;;;5.57;3.28;;;;;;;4.63;71.73;91565.78;2048032;70;20225;-80
2021/11/03 01:26:52;;;;;;;7.00;3.20;;;;;;;4.59;71.45;91563.47;2048225;70;20583;-79
2021/11/03 01:29:18;;;;;;;4.20;2.90;;;;;;;4.65;71.95;91559.59;2047674;70;20154;-79
2021/11/03 01:31:43;;;;;;;3.83;2.10;;;;;;;4.63;71.77;91554.63;2048167;70;20138;-80
2021/11/03 01:34:09;;;;;;;3.70;2.10;;;;;;;4.41;73.07;91547.63;2047547;70;20656;-74
2021/11/03 01:36:35;;;;;;;3.72;2.45;;;;;;;4.64;72.10;91547.00;2044889;70;20625;-81
2021/11/03 01:39:05;;;;;;;2.60;1.80;;;;;;;4.62;71.32;91536.44;2047630;70;20165;-79
2021/11/03 01:41:31;;;;;;;4.70;2.72;;;;;;;4.54;71.73;91535.94;2048312;70;20147;-80
2021/11/03 01:44:11;;;;;;;4.13;2.50;;;;;;;4.61;71.96;91531.47;2048071;70;20603;-78
2021/11/03 01:46:44;;;;;;;5.50;3.00;;;;;;;4.51;71.94;91543.44;2047619;70;20150;-77
2021/11/03 01:49:20;;;;;;;3.95;2.70;;;;;;;4.53;71.96;91537.97;2047404;70;20282;-78
2021/11/03 01:51:56;;;;;;;6.53;3.45;;;;;;;4.49;72.12;91534.22;2047626;70;20173;-78
2021/11/03 01:54:44;;;;;;;5.32;2.72;;;;;;;4.44;72.54;91527.63;2047575;70;20134;-79
2021/11/03 01:57:17;;;;;;;4.63;2.70;;;;;;;4.48;72.51;91529.97;2047644;70;20218;-79
2021/11/03 01:59:46;;;;;;;4.80;2.28;;;;;;;4.43;72.26;91522.69;2047535;70;20257;-79
2021/11/03 02:02:15;;;;;;;4.95;2.58;;;;;;;4.45;72.18;91512.41;2047625;70;20151;-74
2021/11/03 02:04:41;;;;;;;1.95;1.67;;;;;;;4.39;72.83;91509.22;2048553;70;20150;-78
2021/11/03 02:07:10;;;;;;;2.95;1.80;;;;;;;4.55;72.25;91510.25;2048157;70;20151;-75
2021/11/03 02:09:36;;;;;;;5.78;1.83;;;;;;;4.61;71.92;91509.19;2047625;70;20153;-73
2021/11/03 02:12:04;;;;;;;4.55;1.60;;;;;;;4.57;72.17;91507.56;2047523;70;20674;-78
2021/11/03 02:14:31;;;;;;;2.13;1.77;;;;;;;4.55;72.63;91504.69;2047498;70;20167;-80
2021/11/03 02:16:57;;;;;;;2.05;1.58;;;;;;;4.52;72.98;91507.94;2045222;70;20166;-77
2021/11/03 02:19:28;;;;;;;2.50;1.90;;;;;;;4.46;72.54;91513.13;2048875;70;20161;-76
2021/11/03 02:22:04;;;;;;;3.33;2.03;;;;;;;4.55;71.42;91515.09;2047713;70;20139;-77
2021/11/03 02:24:42;;;;;;;3.45;2.15;;;;;;;4.42;72.57;91507.28;2047791;70;20143;-77
2021/11/03 02:27:11;;;;;;;3.28;2.03;;;;;;;4.20;73.62;91506.59;2048036;70;20338;-79
2021/11/03 02:29:37;;;;;;;3.50;2.38;;;;;;;4.38;72.75;91507.03;2048033;70;20592;-77
2021/11/03 02:32:17;;;;;;;3.28;2.28;;;;;;;4.24;73.44;91512.44;2048048;70;20165;-74
2021/11/03 02:34:43;;;;;;;2.90;1.90;;;;;;;4.20;73.17;91503.81;2048013;70;20171;-74
2021/11/03 02:37:36;;;;;;;5.88;2.08;;;;;;;4.26;72.90;91493.03;2048100;70;20162;-80
2021/11/03 02:40:25;;;;;;;3.25;1.80;;;;;;;4.31;72.72;91492.72;2048543;70;20229;-75
2021/11/03 02:42:58;;;;;;;2.22;1.75;;;;;;;4.28;72.39;91498.75;2047951;70;20518;-73
2021/11/03 02:45:41;;;;;;;3.35;2.20;;;;;;;4.29;72.09;91498.16;2048555;70;20209;-76
2021/11/03 02:48:07;;;;;;;3.20;2.30;;;;;;;4.22;72.53;91487.25;2047882;70;20242;-73
2021/11/03 02:50:34;;;;;;;3.30;2.38;;;;;;;4.16;72.60;91486.84;2048019;70;20257;-74
2021/11/03 02:52:59;;;;;;;3.13;2.25;;;;;;;4.15;73.11;91488.16;2047944;70;20586;-79
2021/11/03 02:55:25;;;;;;;3.25;1.80;;;;;;;4.15;72.99;91482.59;2047877;70;20237;-77
2021/11/03 02:57:51;;;;;;;3.00;2.17;;;;;;;4.20;71.71;91482.25;2048030;70;20151;-74
2021/11/03 03:00:22;;;;;;;2.92;2.00;;;;;;;4.08;73.31;91475.91;2048708;70;20209;-81
2021/11/03 03:02:48;;;;;;;2.50;1.90;;;;;;;3.89;74.55;91476.03;2047814;70;20150;-81
2021/11/03 03:05:13;;;;;;;4.07;2.00;;;;;;;4.05;74.15;91468.75;2047902;70;20138;-81
2021/11/03 03:07:40;;;;;;;3.05;1.50;;;;;;;4.03;74.51;91472.13;2045210;70;20694;-74
2021/11/03 03:10:07;;;;;;;2.72;1.67;;;;;;;4.13;75.00;91477.63;2047908;70;20170;-81
2021/11/03 03:12:34;;;;;;;3.08;1.70;;;;;;;4.20;74.04;91479.47;2047849;70;20261;-81
2021/11/03 03:15:00;;;;;;;2.33;1.60;;;;;;;4.15;73.61;91482.59;2047917;70;20583;-79
2021/11/03 03:17:27;;;;;;;3.35;1.90;;;;;;;4.27;73.82;91475.75;2047863;70;20146;-77
2021/11/03 03:19:54;;;;;;;2.28;1.70;;;;;;;4.21;73.57;91471.81;2047935;70;20169;-75
2021/11/03 03:22:20;;;;;;;4.00;1.90;;;;;;;4.07;73.49;91469.59;2047884;70;20143;-74
2021/11/03 03:24:51;;;;;;;2.20;1.55;;;;;;;4.13;74.51;91472.06;2047868;70;20221;-72
2021/11/03 03:27:17;;;;;;;2.95;1.70;;;;;;;4.24;73.01;91476.22;2047883;70;20206;-79
2021/11/03 03:29:44;;;;;;;2.80;1.60;;;;;;;4.28;73.22;91476.47;2047824;70;20214;-75
2021/11/03 03:32:10;;;;;;;2.05;1.60;;;;;;;4.22;73.29;91479.59;2048378;70;20527;-76
2021/11/03 03:34:36;;;;;;;3.65;1.90;;;;;;;4.12;73.13;91483.78;2047821;70;20150;-77
2021/11/03 03:37:03;;;;;;;4.95;2.00;;;;;;;4.07;73.41;91482.78;2047795;70;20150;-78
2021/11/03 03:39:32;;;;;;;3.83;2.25;;;;;;;4.06;72.88;91478.56;2047862;70;20143;-74
2021/11/03 03:42:03;;;;;;;5.05;2.10;;;;;;;4.04;73.55;91470.09;2045153;70;20141;-76
2021/11/03 03:44:29;;;;;;;4.18;1.98;;;;;;;3.94;73.53;91470.16;2047921;70;20160;-76
2021/11/03 03:46:56;;;;;;;2.20;1.70;;;;;;;3.99;73.54;91476.72;2048772;70;20158;-80
2021/11/03 03:49:23;;;;;;;3.40;2.00;;;;;;;3.82;74.97;91474.94;2049204;70;20143;-78
2021/11/03 03:51:49;;;;;;;3.60;1.75;;;;;;;3.83;74.96;91474.31;2048174;70;20508;-77
2021/11/03 03:54:15;;;;;;;3.13;1.90;;;;;;;3.82;74.47;91472.88;2048009;70;20150;-77
2021/11/03 03:56:41;;;;;;;3.00;2.05;;;;;;;3.76;75.08;91466.91;2047811;70;20253;-78
2021/11/03 03:59:07;;;;;;;5.80;3.13;;;;;;;3.75;75.31;91470.28;2047895;70;20161;-74
2021/11/03 04:01:36;;;;;;;4.95;3.30;;;;;;;3.98;74.09;91475.25;2047805;70;20143;-79
2021/11/03 04:04:06;;;;;;;4.35;2.70;;;;;;;4.00;73.70;91467.75;2045008;70;20154;-81
2021/11/03 04:06:31;;;;;;;2.70;2.10;;;;;;;3.94;73.54;91467.38;2049749;70;20148;-76
2021/11/03 04:09:01;;;;;;;4.95;2.90;;;;;;;3.85;74.69;91464.63;2046595;70;20245;-79
2021/11/03 04:11:26;;;;;;;13.68;7.88;;;;;;;3.95;73.92;91452.13;2048302;70;20146;-81
2021/11/03 04:13:52;;;;;;;5.63;3.60;;;;;;;3.76;75.54;91458.56;2047751;70;20146;-78
2021/11/03 04:16:20;;;;;;;4.57;3.03;;;;;;;3.91;74.66;91454.63;2047880;70;20139;-80
2021/11/03 04:18:47;;;;;;;5.43;2.70;;;;;;;3.81;74.65;91445.66;2044879;70;20157;-77
2021/11/03 04:21:13;;;;;;;5.57;3.10;;;;;;;3.52;76.83;91459.75;2048296;70;20166;-77
2021/11/03 04:23:39;;;;;;;6.38;3.25;;;;;;;3.86;74.76;91454.97;2047748;70;20221;-79
2021/11/03 04:26:16;;;;;;;7.88;3.50;;;;;;;3.69;75.29;91448.34;2048300;70;20148;-77
2021/11/03 04:28:41;;;;;;;7.10;3.50;;;;;;;3.96;74.20;91461.94;2044981;70;20161;-77
2021/11/03 04:31:07;;;;;;;5.53;3.25;;;;;;;3.58;75.64;91460.16;2047774;70;20143;-74
2021/11/03 04:33:33;;;;;;;4.63;3.00;;;;;;;3.74;74.50;91463.25;2044867;70;20193;-74
2021/11/03 04:35:59;;;;;;;4.13;2.92;;;;;;;3.88;74.17;91469.75;2047676;70;20225;-75
2021/11/03 04:38:24;;;;;;;6.07;3.95;;;;;;;3.64;74.70;91457.03;2048485;70;20518;-75
2021/11/03 04:40:50;;;;;;;6.28;3.70;;;;;;;3.74;73.82;91452.84;2047690;70;20149;-79
2021/11/03 04:43:16;;;;;;;5.25;3.17;;;;;;;3.82;74.01;91441.53;2047688;70;20166;-81
2021/11/03 04:45:42;;;;;;;5.28;3.30;;;;;;;3.82;74.14;91453.38;2047762;70;20150;-77
2021/11/03 04:48:08;;;;;;;5.78;3.80;;;;;;;3.86;73.82;91441.06;2047523;70;20637;-76
2021/11/03 04:50:35;;;;;;;6.78;4.13;;;;;;;3.82;73.80;91435.97;2047720;70;20603;-78
2021/11/03 04:53:02;;;;;;;7.55;4.30;;;;;;;3.79;73.82;91435.09;2047664;70;20138;-75
2021/11/03 04:55:31;;;;;;;7.47;4.18;;;;;;;3.65;75.83;91436.94;2047504;70;20616;-75
2021/11/03 04:57:57;;;;;;;6.85;4.30;;;;;;;3.76;74.65;91425.16;2047514;70;20239;-79
2021/11/03 05:00:27;;;;;;;7.32;4.32;;;;;;;3.85;74.20;91420.09;2047628;70;20257;-76
2021/11/03 05:02:55;;;;;;;8.02;3.80;;;;;;;3.79;74.60;91417.66;2044837;70;20182;-80
2021/11/03 05:05:22;;;;;;;10.77;5.40;;;;;;;3.67;75.27;91423.19;2047868;70;20234;-75
2021/11/03 05:07:49;;;;;;;37.78;20.38;;;;;;;3.40;77.66;91431.13;2047803;70;20638;-78
2021/11/03 05:10:17;;;;;;;34.97;19.05;;;;;;;3.71;75.44;91422.69;2047699;70;20321;-74
2021/11/03 05:12:43;;;;;;;45.33;24.73;;;;;;;3.83;74.65;91423.50;2047639;70;20252;-77
2021/11/03 05:15:10;;;;;;;45.42;25.48;;;;;;;3.86;74.62;91416.00;2047646;70;20150;-76
2021/11/03 05:17:37;;;;;;;23.73;13.57;;;;;;;3.59;76.69;91416.34;2047607;70;20211;-80
2021/11/03 05:20:04;;;;;;;29.05;16.13;;;;;;;3.68;76.17;91407.94;2047629;70;20596;-75
2021/11/03 05:22:30;;;;;;;26.63;15.40;;;;;;;3.85;74.96;91398.59;2047617;70;20207;-75
2021/11/03 05:24:56;;;;;;;21.83;12.45;;;;;;;3.86;74.67;91393.75;2047785;70;20639;-73
2021/11/03 05:27:23;;;;;;;17.63;10.05;;;;;;;3.95;74.20;91406.84;2048285;70;20130;-78
2021/11/03 05:29:49;;;;;;;15.07;8.77;;;;;;;3.94;74.52;91400.56;2048355;70;20230;-79
2021/11/03 05:32:15;;;;;;;17.75;11.90;;;;;;;3.79;75.15;91381.47;2048831;70;20190;-79
2021/11/03 05:34:41;;;;;;;15.77;9.57;;;;;;;3.87;74.27;91381.28;2048517;70;20629;-81
2021/11/03 05:37:07;;;;;;;18.45;11.93;;;;;;;3.88;74.60;91375.09;2048196;70;20173;-74
2021/11/03 05:39:33;;;;;;;12.18;8.23;;;;;;;3.90;74.54;91371.72;2048072;70;20190;-76
2021/11/03 05:41:58;;;;;;;12.38;7.60;;;;;;;3.86;74.49;91393.75;2048161;70;20515;-79
2021/11/03 05:44:24;;;;;;;12.35;7.50;;;;;;;4.00;74.08;91394.63;2047574;70;20178;-80
2021/11/03 05:46:56;;;;;;;12.85;7.90;;;;;;;3.92;74.79;91382.97;2048173;70;20225;-81
2021/11/03 05:49:27;;;;;;;13.18;7.28;;;;;;;3.80;75.36;91366.22;2047952;70;20179;-80
2021/11/03 05:51:54;;;;;;;9.77;6.95;;;;;;;3.90;75.31;91382.88;2048121;70;20154;-76
2021/11/03 05:54:22;;;;;;;10.98;6.97;;;;;;;3.79;73.60;91384.97;2048612;70;20217;-77
2021/11/03 05:56:48;;;;;;;39.58;14.50;;;;;;;3.81;75.11;91385.13;2044670;70;20138;-78
2021/11/03 05:59:14;;;;;;;35.63;16.55;;;;;;;3.90;75.09;91380.81;2048280;70;20161;-79
2021/11/03 06:01:40;;;;;;;25.63;11.43;;;;;;;3.95;74.78;91388.09;2048029;70;20162;-76
2021/11/03 06:04:06;;;;;;;25.75;11.02;;;;;;;3.96;74.70;91383.97;2048426;70;20139;-80
2021/11/03 06:06:32;;;;;;;11.68;7.03;;;;;;;3.72;76.61;91379.66;2048634;70;20584;-80
2021/11/03 06:08:57;;;;;;;17.13;8.68;;;;;;;3.73;75.66;91379.03;2048541;70;20246;-77
2021/11/03 06:11:24;;;;;;;16.10;8.38;;;;;;;3.99;74.24;91374.41;2048531;70;20182;-76
2021/11/03 06:13:51;;;;;;;11.65;6.40;;;;;;;4.03;74.35;91374.69;2048529;70;20158;-78
2021/11/03 06:16:17;;;;;;;12.10;7.35;;;;;;;3.97;74.82;91370.75;2048615;70;20218;-77
2021/11/03 06:18:43;;;;;;;11.68;6.38;;;;;;;3.96;74.81;91377.66;2048465;70;20323;-78
2021/11/03 06:21:10;;;;;;;7.28;5.05;;;;;;;3.98;74.50;91369.44;2048557;70;20155;-75
2021/11/03 06:23:37;;;;;;;7.40;3.70;;;;;;;4.06;75.10;91372.72;2048534;70;20594;-76
2021/11/03 06:26:02;;;;;;;6.05;3.47;;;;;;;3.97;74.83;91371.50;2048071;70;20138;-77
2021/11/03 06:28:28;;;;;;;9.50;5.95;;;;;;;4.05;73.05;91369.22;2048585;70;20221;-78
2021/11/03 06:30:55;;;;;;;8.80;5.75;;;;;;;4.01;74.85;91374.53;2048514;70;20186;-81
2021/11/03 06:33:20;;;;;;;10.77;5.95;;;;;;;4.02;74.97;91375.97;2048499;70;20146;-77
2021/11/03 06:35:48;;;;;;;10.57;5.93;;;;;;;4.01;74.95;91363.41;2048502;70;20149;-78
2021/11/03 06:38:15;;;;;;;11.63;6.90;;;;;;;3.93;75.26;91367.72;2048011;70;20234;-81
2021/11/03 06:40:42;;;;;;;11.32;6.38;;;;;;;4.03;74.26;91363.53;2048652;70;20127;-79
2021/11/03 06:43:08;;;;;;;9.23;5.47;;;;;;;4.14;74.69;91356.53;2048514;70;20221;-77
2021/11/03 06:45:34;;;;;;;7.28;4.38;;;;;;;4.10;75.31;91361.13;2048419;70;20176;-82
2021/11/03 06:48:00;;;;;;;5.43;3.40;;;;;;;4.28;74.15;91353.91;2048449;70;20143;-81
2021/11/03 06:50:31;;;;;;;4.03;2.78;;;;;;;4.33;73.70;91347.97;2048407;70;20499;-79
2021/11/03 06:52:58;;;;;;;6.43;2.78;;;;;;;4.27;73.47;91346.88;2048562;70;20506;-81
2021/11/03 06:55:24;;;;;;;7.97;2.90;;;;;;;4.37;74.39;91344.72;2048451;70;20158;-81
2021/11/03 06:57:50;;;;;;;3.58;2.50;;;;;;;4.48;73.64;91351.63;2048538;70;20139;-78
2021/11/03 07:00:22;;;;;;;5.55;3.58;;;;;;;4.42;74.33;91351.97;2048418;70;20139;-78
2021/11/03 07:02:48;;;;;;;5.88;3.40;;;;;;;4.46;73.99;91349.44;2048406;70;20154;-78
2021/11/03 07:05:14;;;;;;;10.55;5.20;;;;;;;4.37;74.75;91341.91;2047983;70;20146;-80
2021/11/03 07:07:40;;;;;;;9.95;5.82;;;;;;;4.24;75.54;91353.66;2048432;70;20151;-75
2021/11/03 07:10:08;;;;;;;9.85;6.07;;;;;;;4.45;75.74;91350.06;2047977;70;20242;-82
2021/11/03 07:12:34;;;;;;;11.15;6.15;;;;;;;4.56;75.00;91355.63;2049515;70;20236;-81
2021/11/03 07:15:00;;;;;;;12.15;5.85;;;;;;;4.59;75.29;91348.13;2049646;70;20193;-81
2021/11/03 07:17:26;;;;;;;9.73;5.90;;;;;;;4.48;74.10;91340.47;2048940;70;20150;-81
2021/11/03 07:19:54;;;;;;;11.05;5.80;;;;;;;4.49;75.44;91339.13;2048561;70;20142;-81
2021/11/03 07:22:19;;;;;;;10.20;5.78;;;;;;;4.52;75.78;91335.88;2047904;70;20165;-82
2021/11/03 07:24:45;;;;;;;11.77;8.00;;;;;;;4.64;74.01;91347.03;2048346;70;20142;-77
2021/11/03 07:27:10;;;;;;;12.90;8.93;;;;;;;4.57;75.53;91345.19;2048465;70;20218;-81
2021/11/03 07:29:40;;;;;;;19.55;7.63;;;;;;;4.48;76.12;91354.41;2047966;70;20530;-78
2021/11/03 07:32:06;;;;;;;12.68;7.47;;;;;;;4.76;75.49;91341.44;2048635;70;20170;-79
2021/11/03 07:34:32;;;;;;;12.73;7.90;;;;;;;4.78;75.86;91347.88;2048482;70;20178;-76
2021/11/03 07:36:59;;;;;;;14.35;8.20;;;;;;;4.77;76.02;91337.34;2047828;70;20518;-78
2021/11/03 07:39:24;;;;;;;16.58;8.43;;;;;;;4.79;75.50;91335.38;2048397;70;20603;-81
2021/11/03 07:41:51;;;;;;;11.10;6.88;;;;;;;4.94;73.63;91336.94;2048440;70;20202;-79
2021/11/03 07:44:24;;;;;;;17.60;6.72;;;;;;;5.02;73.51;91331.13;2048838;70;20222;-81
2021/11/03 07:46:50;;;;;;;12.85;6.78;;;;;;;5.19;73.77;91341.91;2051999;70;20142;-80
2021/11/03 07:49:15;;;;;;;14.48;6.97;;;;;;;4.69;76.56;91353.59;2048727;70;20139;-80
2021/11/03 07:51:41;;;;;;;9.88;6.43;;;;;;;4.83;75.03;91341.22;2047842;70;20194;-81
2021/11/03 07:54:08;;;;;;;12.93;6.00;;;;;;;5.10;74.20;91331.63;2045420;70;20216;-83
2021/11/03 07:56:37;;;;;;;15.52;6.63;;;;;;;4.91;74.31;91351.41;2048386;70;20159;-81
2021/11/03 07:59:03;;;;;;;12.20;7.07;;;;;;;5.02;75.07;91322.75;2048457;70;20145;-76
2021/11/03 08:01:29;;;;;;;10.50;6.90;;;;;;;5.40;73.54;91309.56;2048354;70;20507;-75
2021/11/03 08:03:56;;;;;;;18.00;7.57;;;;;;;5.03;73.58;91313.78;2048309;70;20134;-76
2021/11/03 08:06:22;;;;;;;12.93;7.53;;;;;;;5.48;73.72;91293.31;2048366;70;20123;-82
2021/11/03 08:08:53;;;;;;;12.85;7.03;;;;;;;5.59;74.43;91296.06;2048408;70;20162;-77
2021/11/03 08:11:20;;;;;;;;;;;;;;;5.84;72.46;91295.34;2048540;70;20210;-78
2021/11/03 08:13:46;;;;;;;10.85;5.90;;;;;;;6.01;71.70;91269.03;2048349;70;20097;-80
2021/11/03 08:16:12;;;;;;;11.75;6.72;;;;;;;5.41;73.35;91281.06;2045245;70;20669;-77
2021/11/03 08:18:41;;;;;;;22.92;13.88;;;;;;;5.50;74.42;91277.41;2048150;70;20183;-77
2021/11/03 08:21:09;;;;;;;22.20;13.07;;;;;;;5.99;74.30;91273.78;2047785;70;20150;-82
2021/11/03 08:23:35;;;;;;;15.77;10.18;;;;;;;6.18;73.33;91276.22;2048331;70;20139;-81
2021/11/03 08:26:01;;;;;;;11.82;8.15;;;;;;;5.72;74.97;91274.38;2048451;70;20150;-76
2021/11/03 08:28:26;;;;;;;13.57;7.18;;;;;;;6.06;71.97;91267.19;2047893;70;20150;-75
2021/11/03 08:30:55;;;;;;;11.75;7.28;;;;;;;6.34;70.17;91259.59;2048240;70;20151;-78
2021/11/03 08:33:49;;;;;;;12.25;6.15;;;;;;;6.42;69.81;91260.03;2047666;70;20175;-75
2021/11/03 08:36:17;;;;;;;7.80;4.43;;;;;;;6.32;71.91;91273.44;2046915;70;20154;-78
2021/11/03 08:38:44;;;;;;;6.88;4.80;;;;;;;6.48;71.26;91268.00;2047748;70;20562;-77
2021/11/03 08:41:10;;;;;;;8.70;5.25;;;;;;;6.56;70.97;91269.16;2048351;70;20210;-78
2021/11/03 08:43:36;;;;;;;13.23;6.05;;;;;;;6.74;71.13;91261.00;2048325;70;20606;-82
2021/11/03 08:46:04;;;;;;;9.52;5.95;;;;;;;6.37;72.42;91283.53;2048434;70;20166;-79
2021/11/03 08:48:29;;;;;;;11.77;6.88;;;;;;;6.45;72.21;91297.91;2048231;70;20151;-76
2021/11/03 08:50:55;;;;;;;9.98;6.18;;;;;;;6.82;71.13;91278.16;2048214;70;20519;-78
2021/11/03 08:53:21;;;;;;;16.45;7.00;;;;;;;6.54;71.89;91282.28;2047862;70;20151;-79
2021/11/03 08:55:49;;;;;;;8.85;6.20;;;;;;;6.01;74.76;91288.59;2048377;70;20221;-79
2021/11/03 08:58:20;;;;;;;9.82;5.80;;;;;;;6.31;74.40;91269.22;2049242;70;20154;-80
2021/11/03 09:00:47;;;;;;;7.70;5.72;;;;;;;6.70;71.51;91274.03;2048345;70;20141;-78
2021/11/03 09:03:13;;;;;;;11.38;7.22;;;;;;;6.66;70.96;91268.97;2048244;70;20174;-74
2021/11/03 09:05:40;;;;;;;10.70;6.13;;;;;;;6.81;72.05;91257.16;2047768;70;20217;-73
2021/11/03 09:08:07;;;;;;;13.57;7.60;;;;;;;6.86;70.52;91261.59;2048207;70;20181;-80
2021/11/03 09:10:39;;;;;;;10.77;7.88;;;;;;;6.48;72.56;91254.03;2044823;70;20147;-78
2021/11/03 09:13:05;;;;;;;12.63;6.47;;;;;;;6.77;71.92;91239.44;2047681;70;20174;-74
2021/11/03 09:15:31;;;;;;;10.85;5.50;;;;;;;6.81;71.45;91248.75;2047676;70;20607;-81
2021/11/03 09:17:57;;;;;;;9.57;6.22;;;;;;;6.93;71.21;91234.66;2048228;70;20507;-80
2021/11/03 09:20:24;;;;;;;10.43;6.07;;;;;;;7.16;69.92;91221.78;2048228;70;20234;-79
2021/11/03 09:22:50;;;;;;;14.82;7.10;;;;;;;7.17;69.90;91220.44;2044918;70;20149;-80
2021/11/03 09:25:18;;;;;;;16.05;7.30;;;;;;;7.12;70.51;91216.72;2048165;70;20151;-80
2021/11/03 09:27:46;;;;;;;12.32;6.57;;;;;;;7.22;69.56;91205.28;2048381;70;20273;-76
2021/11/03 09:30:14;;;;;;;13.63;7.10;;;;;;;7.27;69.19;91201.34;2047637;70;20137;-75
2021/11/03 09:32:43;;;;;;;11.85;7.38;;;;;;;7.13;70.32;91220.97;2047433;70;20151;-81
2021/11/03 09:35:13;;;;;;;12.13;7.18;;;;;;;7.34;70.34;91208.69;2047999;70;20275;-80
2021/11/03 09:37:39;;;;;;;12.02;6.97;;;;;;;7.57;70.06;91202.06;2049748;70;20150;-78
2021/11/03 09:40:08;;;;;;;11.30;6.90;;;;;;;7.89;69.47;91205.69;2047920;70;20186;-75
2021/11/03 09:42:33;;;;;;;9.52;5.43;;;;;;;7.97;69.42;91203.25;2047569;70;20166;-78
2021/11/03 09:44:59;;;;;;;9.98;5.75;;;;;;;8.21;69.13;91206.44;2047032;70;20158;-76
2021/11/03 09:47:33;;;;;;;8.48;4.95;;;;;;;8.58;67.84;91214.44;2047443;70;20166;-85
2021/11/03 09:50:11;;;;;;;10.77;6.22;;;;;;;9.04;68.73;91203.03;2045936;70;20175;-75
2021/11/03 09:52:47;;;;;;;10.43;6.22;;;;;;;9.47;66.77;91205.53;2039272;70;20155;-76
2021/11/03 09:55:13;;;;;;;9.65;5.88;;;;;;;9.68;65.15;91188.13;2040428;70;20159;-78
2021/11/03 09:57:49;;;;;;;6.32;4.13;;;;;;;9.69;62.95;91194.47;2040986;70;20143;-78
2021/11/03 10:00:47;;;;;;;16.23;7.93;;;;;;;9.89;62.54;91186.81;2041137;70;20135;-80
2021/11/03 10:03:22;;;;;;;12.27;6.30;;;;;;;10.11;62.69;91197.47;2040785;70;20199;-77
2021/11/03 10:06:12;;;;;;;11.00;6.43;;;;;;;10.39;62.96;91190.13;2040961;70;20680;-81
2021/11/03 10:08:41;;;;;;;11.90;7.05;;;;;;;10.46;61.44;91190.38;2041311;70;20171;-72
2021/11/03 10:11:27;;;;;;;10.90;6.20;;;;;;;10.41;62.13;91195.13;2041352;70;20139;-83
2021/11/03 10:13:58;;;;;;;5.10;2.85;;;;;;;10.99;59.76;91173.28;2041642;70;20136;-79
2021/11/03 10:16:46;;;;;;;4.18;2.63;;;;;;;11.02;58.25;91179.72;2041434;70;20206;-77
2021/11/03 10:19:15;;;;;;;4.05;2.55;;;;;;;11.68;56.25;91160.75;2041200;70;20166;-82
2021/11/03 10:21:50;;;;;;;2.70;1.85;;;;;;;11.65;55.34;91165.63;2041403;70;20151;-71
2021/11/03 10:24:16;;;;;;;5.22;1.90;;;;;;;12.17;53.29;91160.22;2041244;70;20254;-80
2021/11/03 10:26:55;;;;;;;3.85;2.40;;;;;;;12.79;52.98;91173.28;2041261;70;20238;-75
2021/11/03 10:29:37;;;;;;;3.45;2.38;;;;;;;13.67;51.80;91168.59;2040629;70;20172;-78
2021/11/03 10:32:09;;;;;;;3.40;2.10;;;;;;;14.48;51.12;91186.06;2041275;70;20616;-81
2021/11/03 10:34:34;;;;;;;4.43;2.38;;;;;;;15.07;49.53;91175.25;2040764;70;20714;-77
2021/11/03 10:37:16;;;;;;;5.05;3.40;;;;;;;14.47;48.90;91173.25;2040038;70;20140;-78
2021/11/03 10:40:00;;;;;;;5.70;3.83;;;;;;;15.37;49.14;91161.66;2040450;70;20158;-72
2021/11/03 10:42:33;;;;;;;5.15;3.20;;;;;;;14.83;47.00;91164.13;2040855;70;20695;-73
2021/11/03 10:45:30;;;;;;;6.80;4.88;;;;;;;14.35;48.38;91168.06;2041046;70;20132;-79
2021/11/03 10:48:18;;;;;;;11.23;5.70;;;;;;;14.80;48.84;91169.06;2040392;70;20634;-80
2021/11/03 10:50:56;;;;;;;4.32;3.03;;;;;;;16.51;45.88;91166.41;2041082;70;20289;-80
2021/11/03 10:53:27;;;;;;;5.90;3.25;;;;;;;16.05;45.64;91157.91;2040596;70;20162;-72
2021/11/03 10:56:04;;;;;;;4.38;3.45;;;;;;;17.17;44.20;91168.00;2040903;70;20195;-75
2021/11/03 10:59:05;;;;;;;5.20;3.55;;;;;;;16.76;44.83;91169.59;2040443;70;20139;-75
2021/11/03 11:01:45;;;;;;;7.72;3.65;;;;;;;16.11;44.21;91171.47;2040913;70;20255;-73
2021/11/03 11:04:42;;;;;;;6.00;3.95;;;;;;;15.75;45.15;91158.09;2040540;70;20226;-70
2021/11/03 11:07:25;;;;;;;6.53;4.40;;;;;;;14.41;47.88;91142.72;2040081;70;20171;-72
2021/11/03 11:09:51;;;;;;;3.80;3.20;;;;;;;15.38;46.70;91146.09;2040621;70;20368;-77
2021/11/03 11:12:34;;;;;;;8.88;2.97;;;;;;;16.12;44.80;91136.00;2041258;70;20628;-78
2021/11/03 11:15:21;;;;;;;18.35;3.33;;;;;;;16.04;44.16;91128.09;2041169;70;20128;-73
2021/11/03 11:17:50;;;;;;;3.55;1.80;;;;;;;15.58;42.92;91136.50;2040879;70;20209;-70
2021/11/03 11:20:25;;;;;;;4.00;2.13;;;;;;;14.79;44.76;91133.63;2040631;70;20238;-74
2021/11/03 11:23:33;;;;;;;4.97;1.73;;;;;;;15.47;44.02;91118.59;2042744;70;20158;-72
2021/11/03 11:26:29;;;;;;;2.78;1.70;;;;;;;15.53;43.66;91121.53;2032420;70;20235;-73
2021/11/03 11:29:24;;;;;;;3.88;2.30;;;;;;;13.79;48.69;91103.13;2034416;70;20252;-74
2021/11/03 11:32:23;;;;;;;2.95;2.20;;;;;;;13.49;49.40;91125.72;2030987;70;20155;-78
2021/11/03 11:35:01;;;;;;;9.57;3.10;;;;;;;14.10;48.13;91104.53;2033330;70;20162;-78
2021/11/03 11:37:27;;;;;;;3.28;2.50;;;;;;;14.52;47.71;91103.31;2034188;70;20183;-75
2021/11/03 11:40:12;;;;;;;5.00;2.50;;;;;;;14.11;48.12;91097.50;2033443;70;20144;-79
2021/11/03 11:43:42;;;;;;;4.28;2.47;;;;;;;13.47;48.00;91108.72;2033962;70;20180;-80
2021/11/03 11:46:19;;;;;;;6.35;3.00;;;;;;;14.36;49.21;91089.53;2019751;71;20257;-82
2021/11/03 11:48:51;;;;;;;4.20;2.30;;;;;;;14.99;46.64;91088.69;2023590;71;20184;-71